Terminal Aerodrome Forecast
Issued by NWS

Home | Current Version | Previous Version | Text Only | Print | Product List | Glossary On
Versions: 1 2 3 4 5 6 7 8 9 10 11 12 13 14 15 16 17 18 19 20 21 22 23 24
000
FTUS41 KPBZ 022300
TAFMGW
TAF
KMGW 022321Z 0300/0324 22005KT P6SM BKN100
     FM030700 00000KT 4SM BR SCT250
     FM031000 00000KT 1SM BR SCT250
     FM031300 23004KT P6SM SCT040=

USA.gov is the U.S. government's official web portal to all federal, state and local government web resources and services.